KCNM/CNM METAR and TAF weather

Enter ICAO airport designator
Station Type Date Time Source
KCNM METAR 2020/04/09 20:53 UTC NOAA

KCNM 092053Z AUTO 33006KT 10SM OVC090 23/04 A2997 RMK AO2 SLP104 T02280044 58009 $


Station Type Date Time Source
KCNM Decoded METAR 2020/04/09 20:53 UTC NOAA

CARLSBAD CAVERN CITY, NM, United States (KCNM) 32-20N 104-16W 985M
Apr 09, 2020 - 04:53 PM EDT / 2020.04.09 2053 UTC
Wind: from the NNW (330 degrees) at 7 MPH (6 KT):0
Visibility: 10 mile(s):0
Sky conditions: overcast
Temperature: 73.0 F (22.8 C)
Dew Point: 39.9 F (4.4 C)
Relative Humidity: 30%
Pressure (altimeter): 29.97 in. Hg (1014 hPa)
Pressure tendency: 0.03 inches (0.9 hPa) lower than three hours ago
ob: KCNM 092053Z AUTO 33006KT 10SM OVC090 23/04 A2997 RMK AO2 SLP104 T02280044 58009
cycle: 21

Station Type Date Time Source
KCNM TAF 2020/04/09 18:34 UTC NOAA

TAF KCNM 091732Z 0918/1018 27013KT P6SM BKN080
FM092100 16009KT P6SM SCT180
FM101100 12008KT P6SM BKN020

Example: see airport list